sensor_id;sensor_type;location;lat;lon;timestamp;pressure;altitude;pressure_sealevel;temperature;humidity
24031;BME280;12240;51.142;22.486;2023-04-30T00:00:38;99159.75;;;6.14;100.00
24031;BME280;12240;51.142;22.486;2023-04-30T00:03:06;99159.88;;;6.12;100.00
24031;BME280;12240;51.142;22.486;2023-04-30T00:05:34;99163.47;;;6.11;100.00
24031;BME280;12240;51.142;22.486;2023-04-30T00:08:03;99161.56;;;6.13;100.00
24031;BME280;12240;51.142;22.486;2023-04-30T00:10:31;99162.72;;;6.20;100.00
24031;BME280;12240;51.142;22.486;2023-04-30T00:12:59;99157.88;;;6.25;100.00
24031;BME280;12240;51.142;22.486;2023-04-30T00:15:27;99162.63;;;6.31;100.00
24031;BME280;12240;51.142;22.486;2023-04-30T00:17:55;99164.44;;;6.31;100.00
24031;BME280;12240;51.142;22.486;2023-04-30T00:20:24;99156.25;;;6.34;100.00
24031;BME280;12240;51.142;22.486;2023-04-30T00:22:52;99157.66;;;6.38;100.00
24031;BME280;12240;51.142;22.486;2023-04-30T00:25:20;99158.81;;;6.45;100.00
24031;BME280;12240;51.142;22.486;2023-04-30T00:27:51;99156.84;;;6.47;100.00
24031;BME280;12240;51.142;22.486;2023-04-30T00:30:19;99169.56;;;6.53;100.00
24031;BME280;12240;51.142;22.486;2023-04-30T00:32:47;99161.34;;;6.56;100.00
24031;BME280;12240;51.142;22.486;2023-04-30T00:35:18;99161.66;;;6.62;100.00
24031;BME280;12240;51.142;22.486;2023-04-30T00:37:46;99169.47;;;6.64;100.00
24031;BME280;12240;51.142;22.486;2023-04-30T00:40:14;99163.66;;;6.70;100.00
24031;BME280;12240;51.142;22.486;2023-04-30T00:42:43;99164.22;;;6.73;100.00
24031;BME280;12240;51.142;22.486;2023-04-30T00:45:11;99166.06;;;6.82;100.00
24031;BME280;12240;51.142;22.486;2023-04-30T00:47:40;99160.50;;;6.85;100.00
24031;BME280;12240;51.142;22.486;2023-04-30T00:50:08;99167.31;;;6.88;100.00
24031;BME280;12240;51.142;22.486;2023-04-30T00:52:37;99166.81;;;6.94;100.00
24031;BME280;12240;51.142;22.486;2023-04-30T00:55:05;99167.22;;;6.99;100.00
24031;BME280;12240;51.142;22.486;2023-04-30T00:57:35;99167.94;;;7.01;100.00
24031;BME280;12240;51.142;22.486;2023-04-30T01:00:04;99168.09;;;6.99;100.00
24031;BME280;12240;51.142;22.486;2023-04-30T01:02:33;99169.59;;;7.02;100.00
24031;BME280;12240;51.142;22.486;2023-04-30T01:05:03;99164.31;;;7.02;100.00
24031;BME280;12240;51.142;22.486;2023-04-30T01:07:34;99169.19;;;6.97;100.00
24031;BME280;12240;51.142;22.486;2023-04-30T01:10:03;99169.75;;;7.00;100.00
24031;BME280;12240;51.142;22.486;2023-04-30T01:18:30;99171.59;;;7.09;100.00
24031;BME280;12240;51.142;22.486;2023-04-30T01:21:07;99163.78;;;7.08;100.00
24031;BME280;12240;51.142;22.486;2023-04-30T01:29:45;99167.25;;;7.08;100.00
24031;BME280;12240;51.142;22.486;2023-04-30T01:32:13;99168.81;;;7.11;100.00
24031;BME280;12240;51.142;22.486;2023-04-30T01:34:41;99166.84;;;7.13;100.00
24031;BME280;12240;51.142;22.486;2023-04-30T01:40:34;99166.16;;;7.21;100.00
24031;BME280;12240;51.142;22.486;2023-04-30T01:46:23;99160.31;;;7.17;100.00
24031;BME280;12240;51.142;22.486;2023-04-30T01:49:32;99162.53;;;7.12;100.00
24031;BME280;12240;51.142;22.486;2023-04-30T01:52:17;99162.50;;;7.02;100.00
24031;BME280;12240;51.142;22.486;2023-04-30T01:55:00;99170.69;;;6.90;100.00
24031;BME280;12240;51.142;22.486;2023-04-30T01:57:41;99171.22;;;6.84;100.00
24031;BME280;12240;51.142;22.486;2023-04-30T02:00:11;99169.28;;;6.86;100.00
24031;BME280;12240;51.142;22.486;2023-04-30T02:02:42;99160.06;;;6.80;100.00
24031;BME280;12240;51.142;22.486;2023-04-30T02:05:10;99161.16;;;6.78;100.00
24031;BME280;12240;51.142;22.486;2023-04-30T02:07:43;99172.72;;;6.77;100.00
24031;BME280;12240;51.142;22.486;2023-04-30T02:10:12;99165.38;;;6.80;100.00
24031;BME280;12240;51.142;22.486;2023-04-30T02:12:41;99172.50;;;6.89;100.00
24031;BME280;12240;51.142;22.486;2023-04-30T02:15:10;99170.72;;;6.99;100.00
24031;BME280;12240;51.142;22.486;2023-04-30T02:17:40;99181.31;;;6.99;100.00
24031;BME280;12240;51.142;22.486;2023-04-30T02:20:09;99177.97;;;7.07;100.00
24031;BME280;12240;51.142;22.486;2023-04-30T02:22:37;99174.00;;;7.22;100.00
24031;BME280;12240;51.142;22.486;2023-04-30T02:25:06;99165.06;;;7.23;100.00
24031;BME280;12240;51.142;22.486;2023-04-30T02:27:34;99167.19;;;7.29;100.00
24031;BME280;12240;51.142;22.486;2023-04-30T02:30:03;99161.59;;;7.32;100.00
24031;BME280;12240;51.142;22.486;2023-04-30T02:32:31;99165.78;;;7.35;100.00
24031;BME280;12240;51.142;22.486;2023-04-30T02:35:00;99163.81;;;7.37;100.00
24031;BME280;12240;51.142;22.486;2023-04-30T02:37:28;99160.91;;;7.30;100.00
24031;BME280;12240;51.142;22.486;2023-04-30T02:39:56;99165.47;;;7.19;100.00
24031;BME280;12240;51.142;22.486;2023-04-30T02:42:25;99169.94;;;7.18;100.00
24031;BME280;12240;51.142;22.486;2023-04-30T02:44:53;99171.34;;;7.22;100.00
24031;BME280;12240;51.142;22.486;2023-04-30T02:47:21;99167.44;;;7.26;100.00
24031;BME280;12240;51.142;22.486;2023-04-30T02:49:49;99175.81;;;7.31;100.00
24031;BME280;12240;51.142;22.486;2023-04-30T02:52:17;99166.91;;;7.32;100.00
24031;BME280;12240;51.142;22.486;2023-04-30T02:54:45;99171.34;;;7.32;100.00
24031;BME280;12240;51.142;22.486;2023-04-30T02:57:13;99164.97;;;7.34;100.00
24031;BME280;12240;51.142;22.486;2023-04-30T02:59:41;99163.25;;;7.33;100.00
24031;BME280;12240;51.142;22.486;2023-04-30T03:02:13;99162.59;;;7.41;100.00
24031;BME280;12240;51.142;22.486;2023-04-30T03:04:41;99166.09;;;7.41;100.00
24031;BME280;12240;51.142;22.486;2023-04-30T03:07:09;99167.47;;;7.45;100.00
24031;BME280;12240;51.142;22.486;2023-04-30T03:09:38;99166.22;;;7.49;100.00
24031;BME280;12240;51.142;22.486;2023-04-30T03:12:06;99164.97;;;7.53;100.00
24031;BME280;12240;51.142;22.486;2023-04-30T03:14:34;99168.06;;;7.58;100.00
24031;BME280;12240;51.142;22.486;2023-04-30T03:17:02;99174.72;;;7.62;100.00
24031;BME280;12240;51.142;22.486;2023-04-30T03:19:30;99174.47;;;7.65;100.00
24031;BME280;12240;51.142;22.486;2023-04-30T03:21:58;99166.94;;;7.70;100.00
24031;BME280;12240;51.142;22.486;2023-04-30T03:24:26;99175.56;;;7.72;100.00
24031;BME280;12240;51.142;22.486;2023-04-30T03:26:54;99175.72;;;7.80;100.00
24031;BME280;12240;51.142;22.486;2023-04-30T03:29:22;99170.84;;;7.85;100.00
24031;BME280;12240;51.142;22.486;2023-04-30T03:31:51;99169.84;;;7.86;100.00
24031;BME280;12240;51.142;22.486;2023-04-30T03:34:19;99175.44;;;7.83;100.00
24031;BME280;12240;51.142;22.486;2023-04-30T03:36:47;99175.00;;;7.88;100.00
24031;BME280;12240;51.142;22.486;2023-04-30T03:39:15;99180.03;;;7.91;100.00
24031;BME280;12240;51.142;22.486;2023-04-30T03:41:43;99172.75;;;7.93;100.00
24031;BME280;12240;51.142;22.486;2023-04-30T03:44:11;99179.91;;;7.92;100.00
24031;BME280;12240;51.142;22.486;2023-04-30T03:46:43;99180.03;;;7.91;100.00
24031;BME280;12240;51.142;22.486;2023-04-30T03:49:11;99187.59;;;7.86;100.00
24031;BME280;12240;51.142;22.486;2023-04-30T03:51:39;99186.75;;;7.85;100.00
24031;BME280;12240;51.142;22.486;2023-04-30T03:54:08;99189.38;;;7.85;100.00
24031;BME280;12240;51.142;22.486;2023-04-30T03:56:37;99198.03;;;7.87;100.00
24031;BME280;12240;51.142;22.486;2023-04-30T03:59:05;99206.41;;;7.92;100.00
24031;BME280;12240;51.142;22.486;2023-04-30T04:01:34;99203.03;;;8.00;100.00
24031;BME280;12240;51.142;22.486;2023-04-30T04:04:03;99202.47;;;8.15;100.00
24031;BME280;12240;51.142;22.486;2023-04-30T04:06:32;99195.63;;;8.22;100.00
24031;BME280;12240;51.142;22.486;2023-04-30T04:09:00;99197.63;;;8.30;100.00
24031;BME280;12240;51.142;22.486;2023-04-30T04:11:29;99193.41;;;8.27;100.00
24031;BME280;12240;51.142;22.486;2023-04-30T04:13:57;99193.28;;;8.29;100.00
24031;BME280;12240;51.142;22.486;2023-04-30T04:16:25;99197.59;;;8.40;100.00
24031;BME280;12240;51.142;22.486;2023-04-30T04:18:54;99191.44;;;8.49;100.00
24031;BME280;12240;51.142;22.486;2023-04-30T04:21:22;99189.88;;;8.56;100.00
24031;BME280;12240;51.142;22.486;2023-04-30T04:23:50;99188.31;;;8.53;100.00
24031;BME280;12240;51.142;22.486;2023-04-30T04:26:19;99195.47;;;8.53;100.00
24031;BME280;12240;51.142;22.486;2023-04-30T04:28:48;99197.53;;;8.59;100.00
24031;BME280;12240;51.142;22.486;2023-04-30T04:31:17;99198.06;;;8.72;100.00
24031;BME280;12240;51.142;22.486;2023-04-30T04:33:45;99196.22;;;8.72;100.00
24031;BME280;12240;51.142;22.486;2023-04-30T04:36:13;99201.38;;;8.83;100.00
24031;BME280;12240;51.142;22.486;2023-04-30T04:38:42;99206.00;;;8.81;100.00
24031;BME280;12240;51.142;22.486;2023-04-30T04:41:11;99202.22;;;8.84;100.00
24031;BME280;12240;51.142;22.486;2023-04-30T04:43:39;99203.88;;;8.85;100.00
24031;BME280;12240;51.142;22.486;2023-04-30T04:46:08;99208.88;;;8.97;100.00
24031;BME280;12240;51.142;22.486;2023-04-30T04:48:39;99217.66;;;8.98;100.00
24031;BME280;12240;51.142;22.486;2023-04-30T04:51:08;99220.19;;;8.99;100.00
24031;BME280;12240;51.142;22.486;2023-04-30T04:53:37;99224.19;;;9.13;100.00
24031;BME280;12240;51.142;22.486;2023-04-30T04:56:05;99232.63;;;9.26;100.00
24031;BME280;12240;51.142;22.486;2023-04-30T04:58:34;99225.13;;;9.39;100.00
24031;BME280;12240;51.142;22.486;2023-04-30T05:01:03;99226.91;;;9.48;100.00
24031;BME280;12240;51.142;22.486;2023-04-30T05:03:34;99228.53;;;9.59;100.00
24031;BME280;12240;51.142;22.486;2023-04-30T05:06:05;99226.09;;;9.65;100.00
24031;BME280;12240;51.142;22.486;2023-04-30T05:08:34;99235.53;;;9.77;100.00
24031;BME280;12240;51.142;22.486;2023-04-30T05:11:03;99233.19;;;9.92;100.00
24031;BME280;12240;51.142;22.486;2023-04-30T05:13:31;99235.28;;;10.15;100.00
24031;BME280;12240;51.142;22.486;2023-04-30T05:15:59;99233.72;;;10.30;100.00
24031;BME280;12240;51.142;22.486;2023-04-30T05:18:27;99237.53;;;10.45;100.00
24031;BME280;12240;51.142;22.486;2023-04-30T05:20:56;99228.75;;;10.53;100.00
24031;BME280;12240;51.142;22.486;2023-04-30T05:23:24;99240.13;;;10.63;100.00
24031;BME280;12240;51.142;22.486;2023-04-30T05:25:52;99236.38;;;10.74;100.00
24031;BME280;12240;51.142;22.486;2023-04-30T05:28:20;99234.56;;;10.74;100.00
24031;BME280;12240;51.142;22.486;2023-04-30T05:30:48;99228.59;;;10.80;100.00
24031;BME280;12240;51.142;22.486;2023-04-30T05:33:16;99227.97;;;10.86;100.00
24031;BME280;12240;51.142;22.486;2023-04-30T05:35:45;99233.66;;;10.91;100.00
24031;BME280;12240;51.142;22.486;2023-04-30T05:38:12;99229.34;;;10.90;100.00
24031;BME280;12240;51.142;22.486;2023-04-30T05:40:40;99233.50;;;10.93;100.00
24031;BME280;12240;51.142;22.486;2023-04-30T05:43:08;99237.38;;;10.98;100.00
24031;BME280;12240;51.142;22.486;2023-04-30T05:45:37;99232.34;;;10.95;100.00
24031;BME280;12240;51.142;22.486;2023-04-30T05:48:06;99231.88;;;11.00;100.00
24031;BME280;12240;51.142;22.486;2023-04-30T05:50:35;99243.25;;;11.10;100.00
24031;BME280;12240;51.142;22.486;2023-04-30T05:53:03;99241.09;;;11.13;100.00
24031;BME280;12240;51.142;22.486;2023-04-30T05:55:31;99235.53;;;11.32;100.00
24031;BME280;12240;51.142;22.486;2023-04-30T05:58:00;99229.09;;;11.51;100.00
24031;BME280;12240;51.142;22.486;2023-04-30T06:00:28;99234.59;;;11.49;100.00
24031;BME280;12240;51.142;22.486;2023-04-30T06:02:56;99229.38;;;11.73;100.00
24031;BME280;12240;51.142;22.486;2023-04-30T06:05:25;99239.75;;;12.01;100.00
24031;BME280;12240;51.142;22.486;2023-04-30T06:07:53;99237.09;;;12.09;100.00
24031;BME280;12240;51.142;22.486;2023-04-30T06:10:21;99228.56;;;11.97;100.00
24031;BME280;12240;51.142;22.486;2023-04-30T06:12:50;99235.63;;;12.22;100.00
24031;BME280;12240;51.142;22.486;2023-04-30T06:15:18;99233.59;;;12.40;100.00
24031;BME280;12240;51.142;22.486;2023-04-30T06:17:46;99236.44;;;12.47;100.00
24031;BME280;12240;51.142;22.486;2023-04-30T06:20:15;99234.44;;;12.65;100.00
24031;BME280;12240;51.142;22.486;2023-04-30T06:22:44;99237.28;;;12.55;100.00
24031;BME280;12240;51.142;22.486;2023-04-30T06:25:12;99238.75;;;12.66;100.00
24031;BME280;12240;51.142;22.486;2023-04-30T06:27:40;99240.75;;;12.56;100.00
24031;BME280;12240;51.142;22.486;2023-04-30T06:30:09;99242.97;;;12.60;100.00
24031;BME280;12240;51.142;22.486;2023-04-30T06:32:37;99245.44;;;12.54;100.00
24031;BME280;12240;51.142;22.486;2023-04-30T06:35:06;99247.59;;;12.26;100.00
24031;BME280;12240;51.142;22.486;2023-04-30T06:37:35;99254.47;;;12.45;100.00
24031;BME280;12240;51.142;22.486;2023-04-30T06:40:06;99261.31;;;12.63;100.00
24031;BME280;12240;51.142;22.486;2023-04-30T06:42:34;99260.28;;;13.05;100.00
24031;BME280;12240;51.142;22.486;2023-04-30T06:45:03;99255.84;;;13.36;100.00
24031;BME280;12240;51.142;22.486;2023-04-30T06:47:34;99268.63;;;13.87;100.00
24031;BME280;12240;51.142;22.486;2023-04-30T06:50:04;99258.72;;;13.65;100.00
24031;BME280;12240;51.142;22.486;2023-04-30T06:52:32;99255.28;;;13.02;100.00
24031;BME280;12240;51.142;22.486;2023-04-30T06:55:00;99273.47;;;12.66;100.00
24031;BME280;12240;51.142;22.486;2023-04-30T06:57:29;99272.44;;;13.07;100.00
24031;BME280;12240;51.142;22.486;2023-04-30T06:59:57;99275.50;;;13.51;100.00
24031;BME280;12240;51.142;22.486;2023-04-30T07:02:25;99281.00;;;13.03;100.00
24031;BME280;12240;51.142;22.486;2023-04-30T07:04:54;99288.50;;;13.62;100.00
24031;BME280;12240;51.142;22.486;2023-04-30T07:07:23;99278.84;;;13.53;100.00
24031;BME280;12240;51.142;22.486;2023-04-30T07:09:51;99288.28;;;13.25;100.00
24031;BME280;12240;51.142;22.486;2023-04-30T07:12:20;99288.28;;;13.71;100.00
24031;BME280;12240;51.142;22.486;2023-04-30T07:14:49;99290.22;;;13.47;100.00
24031;BME280;12240;51.142;22.486;2023-04-30T07:17:17;99305.38;;;13.08;100.00
24031;BME280;12240;51.142;22.486;2023-04-30T07:19:45;99310.75;;;12.67;100.00
24031;BME280;12240;51.142;22.486;2023-04-30T07:22:14;99314.56;;;12.73;100.00
24031;BME280;12240;51.142;22.486;2023-04-30T07:24:42;99306.69;;;13.04;100.00
24031;BME280;12240;51.142;22.486;2023-04-30T07:27:10;99316.22;;;13.22;100.00
24031;BME280;12240;51.142;22.486;2023-04-30T07:29:38;99304.59;;;13.46;100.00
24031;BME280;12240;51.142;22.486;2023-04-30T07:32:07;99308.88;;;13.63;100.00
24031;BME280;12240;51.142;22.486;2023-04-30T07:34:37;99314.31;;;13.39;100.00
24031;BME280;12240;51.142;22.486;2023-04-30T07:37:05;99315.59;;;13.59;100.00
24031;BME280;12240;51.142;22.486;2023-04-30T07:39:34;99317.91;;;13.70;100.00
24031;BME280;12240;51.142;22.486;2023-04-30T07:42:05;99316.78;;;13.56;100.00
24031;BME280;12240;51.142;22.486;2023-04-30T07:44:33;99319.31;;;13.42;100.00
24031;BME280;12240;51.142;22.486;2023-04-30T07:47:01;99321.69;;;13.37;100.00
24031;BME280;12240;51.142;22.486;2023-04-30T07:49:32;99329.94;;;13.11;100.00
24031;BME280;12240;51.142;22.486;2023-04-30T07:52:00;99337.44;;;12.75;100.00
24031;BME280;12240;51.142;22.486;2023-04-30T07:54:29;99343.63;;;12.52;100.00
24031;BME280;12240;51.142;22.486;2023-04-30T07:56:57;99342.47;;;11.63;100.00
24031;BME280;12240;51.142;22.486;2023-04-30T07:59:26;99351.19;;;11.65;100.00
24031;BME280;12240;51.142;22.486;2023-04-30T08:01:54;99350.06;;;11.67;100.00
24031;BME280;12240;51.142;22.486;2023-04-30T08:04:23;99363.28;;;11.59;100.00
24031;BME280;12240;51.142;22.486;2023-04-30T08:06:52;99364.59;;;11.04;100.00
24031;BME280;12240;51.142;22.486;2023-04-30T08:09:20;99377.16;;;11.37;100.00
24031;BME280;12240;51.142;22.486;2023-04-30T08:11:49;99375.22;;;11.22;100.00
24031;BME280;12240;51.142;22.486;2023-04-30T08:14:18;99379.31;;;10.91;100.00
24031;BME280;12240;51.142;22.486;2023-04-30T08:16:47;99387.31;;;10.91;100.00
24031;BME280;12240;51.142;22.486;2023-04-30T08:19:16;99385.13;;;10.86;100.00
24031;BME280;12240;51.142;22.486;2023-04-30T08:21:45;99396.78;;;10.85;100.00
24031;BME280;12240;51.142;22.486;2023-04-30T08:24:13;99404.09;;;10.83;100.00
24031;BME280;12240;51.142;22.486;2023-04-30T08:26:42;99402.25;;;10.48;100.00
24031;BME280;12240;51.142;22.486;2023-04-30T08:29:11;99415.19;;;10.43;100.00
24031;BME280;12240;51.142;22.486;2023-04-30T08:31:39;99410.78;;;10.52;100.00
24031;BME280;12240;51.142;22.486;2023-04-30T08:34:08;99417.38;;;10.48;100.00
24031;BME280;12240;51.142;22.486;2023-04-30T08:36:36;99423.47;;;10.58;100.00
24031;BME280;12240;51.142;22.486;2023-04-30T08:39:05;99410.13;;;10.23;100.00
24031;BME280;12240;51.142;22.486;2023-04-30T08:41:34;99415.47;;;10.40;100.00
24031;BME280;12240;51.142;22.486;2023-04-30T08:44:03;99424.16;;;10.42;100.00
24031;BME280;12240;51.142;22.486;2023-04-30T08:46:35;99428.25;;;10.54;100.00
24031;BME280;12240;51.142;22.486;2023-04-30T08:49:05;99427.06;;;10.67;100.00
24031;BME280;12240;51.142;22.486;2023-04-30T08:51:34;99424.94;;;10.88;100.00
24031;BME280;12240;51.142;22.486;2023-04-30T08:54:03;99427.06;;;10.84;100.00
24031;BME280;12240;51.142;22.486;2023-04-30T08:56:31;99435.53;;;10.80;100.00
24031;BME280;12240;51.142;22.486;2023-04-30T08:59:01;99438.56;;;11.02;100.00
24031;BME280;12240;51.142;22.486;2023-04-30T09:01:30;99434.72;;;11.05;100.00
24031;BME280;12240;51.142;22.486;2023-04-30T09:03:58;99441.28;;;11.10;100.00
24031;BME280;12240;51.142;22.486;2023-04-30T09:06:27;99435.25;;;11.26;100.00
24031;BME280;12240;51.142;22.486;2023-04-30T09:08:56;99440.91;;;11.23;100.00
24031;BME280;12240;51.142;22.486;2023-04-30T09:11:27;99447.84;;;11.16;100.00
24031;BME280;12240;51.142;22.486;2023-04-30T09:13:59;99445.13;;;11.33;100.00
24031;BME280;12240;51.142;22.486;2023-04-30T09:16:29;99449.09;;;11.29;100.00
24031;BME280;12240;51.142;22.486;2023-04-30T09:19:02;99452.38;;;11.23;100.00
24031;BME280;12240;51.142;22.486;2023-04-30T09:21:35;99445.88;;;11.00;100.00
24031;BME280;12240;51.142;22.486;2023-04-30T09:24:05;99451.31;;;11.16;100.00
24031;BME280;12240;51.142;22.486;2023-04-30T09:26:37;99457.97;;;11.12;100.00
24031;BME280;12240;51.142;22.486;2023-04-30T09:29:05;99454.13;;;11.15;100.00
24031;BME280;12240;51.142;22.486;2023-04-30T09:31:42;99450.94;;;11.11;100.00
24031;BME280;12240;51.142;22.486;2023-04-30T09:34:11;99456.34;;;11.19;100.00
24031;BME280;12240;51.142;22.486;2023-04-30T09:36:53;99458.72;;;11.05;100.00
24031;BME280;12240;51.142;22.486;2023-04-30T09:39:22;99456.75;;;11.07;100.00
24031;BME280;12240;51.142;22.486;2023-04-30T09:41:50;99458.81;;;10.95;100.00
24031;BME280;12240;51.142;22.486;2023-04-30T09:44:37;99457.41;;;10.74;100.00
24031;BME280;12240;51.142;22.486;2023-04-30T09:47:19;99465.88;;;10.69;100.00
24031;BME280;12240;51.142;22.486;2023-04-30T09:49:49;99470.81;;;10.99;100.00
24031;BME280;12240;51.142;22.486;2023-04-30T09:52:21;99476.63;;;11.12;100.00
24031;BME280;12240;51.142;22.486;2023-04-30T09:54:49;99474.22;;;11.27;100.00
24031;BME280;12240;51.142;22.486;2023-04-30T09:57:22;99482.13;;;11.54;100.00
24031;BME280;12240;51.142;22.486;2023-04-30T09:59:52;99478.34;;;11.21;100.00
24031;BME280;12240;51.142;22.486;2023-04-30T10:02:21;99482.31;;;11.35;100.00
24031;BME280;12240;51.142;22.486;2023-04-30T10:04:55;99477.22;;;11.24;100.00
24031;BME280;12240;51.142;22.486;2023-04-30T10:07:33;99469.38;;;11.05;100.00
24031;BME280;12240;51.142;22.486;2023-04-30T10:10:07;99473.78;;;11.14;100.00
24031;BME280;12240;51.142;22.486;2023-04-30T10:12:50;99478.16;;;11.40;100.00
24031;BME280;12240;51.142;22.486;2023-04-30T10:15:28;99476.88;;;11.44;100.00
24031;BME280;12240;51.142;22.486;2023-04-30T10:18:36;99479.53;;;12.21;100.00
24031;BME280;12240;51.142;22.486;2023-04-30T10:21:07;99464.09;;;12.41;100.00
24031;BME280;12240;51.142;22.486;2023-04-30T10:23:39;99469.00;;;12.69;100.00
24031;BME280;12240;51.142;22.486;2023-04-30T10:26:10;99464.72;;;12.93;100.00
24031;BME280;12240;51.142;22.486;2023-04-30T10:28:40;99474.47;;;13.10;100.00
24031;BME280;12240;51.142;22.486;2023-04-30T10:31:09;99475.97;;;12.54;100.00
24031;BME280;12240;51.142;22.486;2023-04-30T10:34:13;99475.19;;;12.62;100.00
24031;BME280;12240;51.142;22.486;2023-04-30T10:36:53;99465.63;;;12.43;100.00
24031;BME280;12240;51.142;22.486;2023-04-30T10:39:23;99468.91;;;12.37;100.00
24031;BME280;12240;51.142;22.486;2023-04-30T10:42:02;99472.16;;;12.15;100.00
24031;BME280;12240;51.142;22.486;2023-04-30T10:44:36;99467.91;;;11.97;100.00
24031;BME280;12240;51.142;22.486;2023-04-30T10:47:07;99483.47;;;11.58;100.00
24031;BME280;12240;51.142;22.486;2023-04-30T10:49:35;99475.75;;;11.98;100.00
24031;BME280;12240;51.142;22.486;2023-04-30T10:52:04;99470.06;;;11.93;100.00
24031;BME280;12240;51.142;22.486;2023-04-30T10:54:35;99468.81;;;12.63;100.00
24031;BME280;12240;51.142;22.486;2023-04-30T10:57:15;99468.38;;;12.83;100.00
24031;BME280;12240;51.142;22.486;2023-04-30T10:59:51;99460.09;;;13.27;100.00
24031;BME280;12240;51.142;22.486;2023-04-30T11:02:20;99456.91;;;13.15;100.00
24031;BME280;12240;51.142;22.486;2023-04-30T11:05:07;99451.03;;;13.60;100.00
24031;BME280;12240;51.142;22.486;2023-04-30T11:07:36;99452.72;;;13.13;100.00
24031;BME280;12240;51.142;22.486;2023-04-30T11:10:07;99443.56;;;14.02;100.00
24031;BME280;12240;51.142;22.486;2023-04-30T11:12:40;99444.03;;;13.27;100.00
24031;BME280;12240;51.142;22.486;2023-04-30T11:15:17;99434.84;;;13.53;100.00
24031;BME280;12240;51.142;22.486;2023-04-30T11:17:50;99439.00;;;13.56;100.00
24031;BME280;12240;51.142;22.486;2023-04-30T11:20:20;99428.63;;;14.16;100.00
24031;BME280;12240;51.142;22.486;2023-04-30T11:23:23;99434.47;;;14.58;100.00
24031;BME280;12240;51.142;22.486;2023-04-30T11:26:07;99414.97;;;14.41;100.00
24031;BME280;12240;51.142;22.486;2023-04-30T11:28:36;99420.53;;;13.85;100.00
24031;BME280;12240;51.142;22.486;2023-04-30T11:31:05;99423.66;;;13.34;100.00
24031;BME280;12240;51.142;22.486;2023-04-30T11:33:34;99431.56;;;13.98;100.00
24031;BME280;12240;51.142;22.486;2023-04-30T11:36:04;99424.88;;;14.41;100.00
24031;BME280;12240;51.142;22.486;2023-04-30T11:38:35;99433.19;;;13.44;100.00
24031;BME280;12240;51.142;22.486;2023-04-30T11:41:05;99435.28;;;13.73;100.00
24031;BME280;12240;51.142;22.486;2023-04-30T11:43:34;99437.00;;;14.13;100.00
24031;BME280;12240;51.142;22.486;2023-04-30T11:46:11;99430.09;;;14.34;100.00
24031;BME280;12240;51.142;22.486;2023-04-30T11:48:43;99425.84;;;14.48;100.00
24031;BME280;12240;51.142;22.486;2023-04-30T11:51:22;99429.50;;;15.00;100.00
24031;BME280;12240;51.142;22.486;2023-04-30T11:53:53;99415.38;;;15.95;100.00
24031;BME280;12240;51.142;22.486;2023-04-30T11:56:23;99394.66;;;16.39;100.00
24031;BME280;12240;51.142;22.486;2023-04-30T11:58:52;99382.34;;;17.29;100.00
24031;BME280;12240;51.142;22.486;2023-04-30T12:01:26;99374.06;;;15.67;100.00
24031;BME280;12240;51.142;22.486;2023-04-30T12:03:56;99385.69;;;14.62;100.00
24031;BME280;12240;51.142;22.486;2023-04-30T12:06:28;99385.19;;;15.49;100.00
24031;BME280;12240;51.142;22.486;2023-04-30T12:08:59;99392.31;;;16.86;100.00
24031;BME280;12240;51.142;22.486;2023-04-30T12:11:31;99380.25;;;16.11;100.00
24031;BME280;12240;51.142;22.486;2023-04-30T12:14:07;99378.81;;;15.94;100.00
24031;BME280;12240;51.142;22.486;2023-04-30T12:16:42;99388.78;;;16.14;100.00
24031;BME280;12240;51.142;22.486;2023-04-30T12:19:12;99389.25;;;16.03;100.00
24031;BME280;12240;51.142;22.486;2023-04-30T12:21:42;99393.63;;;15.38;100.00
24031;BME280;12240;51.142;22.486;2023-04-30T12:24:16;99395.59;;;15.07;100.00
24031;BME280;12240;51.142;22.486;2023-04-30T12:26:45;99392.13;;;16.02;100.00
24031;BME280;12240;51.142;22.486;2023-04-30T12:29:17;99398.72;;;16.64;100.00
24031;BME280;12240;51.142;22.486;2023-04-30T12:31:48;99376.94;;;16.59;100.00
24031;BME280;12240;51.142;22.486;2023-04-30T12:34:18;99372.59;;;16.79;100.00
24031;BME280;12240;51.142;22.486;2023-04-30T12:36:46;99384.53;;;15.76;100.00
24031;BME280;12240;51.142;22.486;2023-04-30T12:39:15;99371.34;;;15.00;100.00
24031;BME280;12240;51.142;22.486;2023-04-30T12:41:46;99384.03;;;15.06;100.00
24031;BME280;12240;51.142;22.486;2023-04-30T12:44:19;99386.88;;;15.05;100.00
24031;BME280;12240;51.142;22.486;2023-04-30T12:46:50;99384.56;;;15.02;100.00
24031;BME280;12240;51.142;22.486;2023-04-30T12:49:24;99385.09;;;15.35;100.00
24031;BME280;12240;51.142;22.486;2023-04-30T12:54:33;99366.94;;;15.88;100.00
24031;BME280;12240;51.142;22.486;2023-04-30T12:57:08;99375.47;;;15.26;100.00
24031;BME280;12240;51.142;22.486;2023-04-30T12:59:37;99373.97;;;16.04;100.00
24031;BME280;12240;51.142;22.486;2023-04-30T13:02:11;99367.94;;;16.16;100.00
24031;BME280;12240;51.142;22.486;2023-04-30T13:04:41;99366.31;;;16.93;100.00
24031;BME280;12240;51.142;22.486;2023-04-30T13:07:10;99346.16;;;17.59;100.00
24031;BME280;12240;51.142;22.486;2023-04-30T13:09:38;99352.94;;;17.27;100.00
24031;BME280;12240;51.142;22.486;2023-04-30T13:12:06;99366.88;;;17.10;100.00
24031;BME280;12240;51.142;22.486;2023-04-30T13:14:34;99363.44;;;16.74;100.00
24031;BME280;12240;51.142;22.486;2023-04-30T13:17:04;99355.31;;;16.67;100.00
24031;BME280;12240;51.142;22.486;2023-04-30T13:19:34;99358.84;;;16.32;98.28